Arcadia, Missouri
Current Conditions -  °F | °C
As of 6:15 AM on Sunday 23 Nov 2014 (Local Time) from KFAM Reporting Station
Overcast Overcast  
Wind Chill: 12°   Ceiling: 1300
Heat Index: 12°   Visibility: 10mi
Dew Point:   Wind: 16mph
Humidity: 82%   Direction: 130°SE
Pressure: 29.76"   Gusts: 20mph
Location:  37.59°N, 90.63°W
Report Text: KFAM 231215Z AUTO 13014G17KT 10SM BKN013 OVC024 12/09 A2976 RMK AO1
Loading
Personal Weather Stations






























Interactive Weather Map New forecast layout! Learn more

10-Day Weather Forecast

Advertisements
Track Severe Weather on mobile